Time;durP1;ratioP1;P1;durP2;ratioP2;P2;SDS_P1;SDS_P2;PMS_P1;PMS_P2;Temp;Humidity;BMP_temperature;BMP_pressure;BME280_temperature;BME280_humidity;BME280_pressure;Samples;Min_cycle;Max_cycle;Signal;HPM_P1;HPM_P2
2023/08/21 00:01:42;;;;;;;2.20;2.10;;;;;;;23.44;74.73;95945.75;4351275;32;20196;-66
2023/08/21 00:04:09;;;;;;;3.77;2.10;;;;;;;23.38;75.39;95939.81;4342270;32;20223;-66
2023/08/21 00:06:34;;;;;;;2.73;2.53;;;;;;;23.29;76.28;95939.25;4317969;32;20316;-65
2023/08/21 00:09:04;;;;;;;6.37;1.63;;;;;;;23.33;76.14;95939.34;4354016;32;20243;-66
2023/08/21 00:11:31;;;;;;;2.93;2.30;;;;;;;23.24;76.13;95945.78;4355893;32;20189;-66
2023/08/21 00:13:56;;;;;;;1.53;1.53;;;;;;;23.18;76.36;95947.22;4336250;32;20227;-66
2023/08/21 00:16:23;;;;;;;2.57;2.37;;;;;;;23.28;76.04;95943.91;4327661;32;20193;-66
2023/08/21 00:18:49;;;;;;;2.27;1.53;;;;;;;23.24;76.57;95943.06;4327486;32;20216;-65
2023/08/21 00:21:14;;;;;;;2.47;2.23;;;;;;;23.20;76.46;95941.44;4320576;32;20189;-64
2023/08/21 00:23:42;;;;;;;2.13;2.03;;;;;;;23.20;77.22;95942.22;4326681;32;20197;-66
2023/08/21 00:26:10;;;;;;;2.17;2.07;;;;;;;23.17;77.16;95942.94;4314119;32;20208;-66
2023/08/21 00:28:36;;;;;;;8.43;1.60;;;;;;;23.05;77.91;95934.97;4333248;32;20204;-66
2023/08/21 00:31:04;;;;;;;2.53;2.33;;;;;;;23.04;77.26;95933.41;4319038;32;20197;-65
2023/08/21 00:33:37;;;;;;;2.87;2.53;;;;;;;22.99;78.51;95933.69;4311740;32;20197;-66
2023/08/21 00:36:04;;;;;;;2.03;1.83;;;;;;;23.00;78.03;95924.44;4342572;32;20208;-66
2023/08/21 00:38:30;;;;;;;3.07;2.97;;;;;;;23.00;77.45;95932.56;4310510;32;20182;-66
2023/08/21 00:40:57;;;;;;;2.00;1.90;;;;;;;23.03;77.29;95934.56;4326155;32;20196;-66
2023/08/21 00:43:24;;;;;;;2.33;2.23;;;;;;;22.99;77.25;95936.41;4312607;33;20194;-66
2023/08/21 00:45:51;;;;;;;2.40;2.30;;;;;;;23.00;77.73;95929.84;4306182;32;20249;-66
2023/08/21 00:48:17;;;;;;;2.53;2.13;;;;;;;22.92;77.96;95930.84;4345300;32;20199;-66
2023/08/21 00:50:44;;;;;;;1.93;1.80;;;;;;;22.90;77.23;95928.50;4330648;32;20208;-66
2023/08/21 00:53:11;;;;;;;2.30;2.07;;;;;;;22.80;77.66;95925.59;4301051;32;20201;-66
2023/08/21 00:55:37;;;;;;;2.00;1.90;;;;;;;22.78;77.94;95925.16;4289200;33;20190;-66
2023/08/21 00:58:05;;;;;;;2.50;2.30;;;;;;;22.87;76.68;95925.72;4335632;32;22302;-65
2023/08/21 01:00:35;;;;;;;2.33;2.23;;;;;;;22.88;76.72;95919.94;4353120;32;20254;-66
2023/08/21 01:03:02;;;;;;;1.40;1.40;;;;;;;22.85;77.15;95923.37;4334996;32;20233;-66
2023/08/21 01:05:29;;;;;;;1.60;1.50;;;;;;;22.90;76.54;95920.38;4306147;32;20257;-66
2023/08/21 01:08:09;;;;;;;1.83;1.73;;;;;;;22.89;76.58;95921.50;4322155;32;20247;-65
2023/08/21 01:10:57;;;;;;;1.97;1.87;;;;;;;22.91;77.28;95918.44;4314082;32;20276;-66
2023/08/21 01:13:47;;;;;;;2.13;1.90;;;;;;;22.83;76.34;95924.88;4350172;32;20268;-66
2023/08/21 01:16:37;;;;;;;1.43;1.43;;;;;;;22.81;76.45;95924.44;4346809;32;20216;-66
2023/08/21 01:19:24;;;;;;;2.33;2.23;;;;;;;22.73;77.12;95928.12;4336974;32;20190;-67
2023/08/21 01:21:51;;;;;;;2.67;2.50;;;;;;;22.68;77.79;95931.09;4359376;32;20189;-66
2023/08/21 01:24:21;;;;;;;2.77;2.60;;;;;;;22.70;77.49;95931.53;4320699;32;20197;-65
2023/08/21 01:26:47;;;;;;;1.67;1.57;;;;;;;22.72;77.34;95932.75;4321856;32;20198;-66
2023/08/21 01:29:12;;;;;;;2.20;2.10;;;;;;;22.73;77.39;95931.59;4306229;32;20248;-66
2023/08/21 01:31:42;;;;;;;1.80;1.70;;;;;;;22.80;77.14;95928.31;4338752;32;20189;-66
2023/08/21 01:34:22;;;;;;;1.77;1.77;;;;;;;22.74;77.21;95926.97;4305993;32;20197;-66
2023/08/21 01:36:49;;;;;;;1.23;1.23;;;;;;;22.71;77.66;95924.97;4294824;32;20241;-65
2023/08/21 01:39:17;;;;;;;2.80;2.70;;;;;;;22.65;78.39;95918.31;4275069;33;20233;-64
2023/08/21 01:41:45;;;;;;;1.50;1.50;;;;;;;22.61;77.81;95919.00;4277810;33;20193;-66
2023/08/21 01:44:13;;;;;;;2.33;1.23;;;;;;;22.67;77.72;95916.78;4303231;32;20186;-66
2023/08/21 01:46:39;;;;;;;2.30;2.10;;;;;;;22.73;77.16;95928.12;4326810;32;20232;-66
2023/08/21 01:49:06;;;;;;;1.90;1.83;;;;;;;22.59;78.12;95929.41;4318924;32;20248;-66
2023/08/21 01:51:34;;;;;;;3.57;1.80;;;;;;;22.38;78.73;95931.66;4317927;32;20298;-66
2023/08/21 01:53:59;;;;;;;1.67;1.57;;;;;;;22.53;78.93;95928.09;4319277;32;20204;-66
2023/08/21 01:56:26;;;;;;;7.10;2.00;;;;;;;22.52;78.48;95918.44;4310306;32;20190;-66
2023/08/21 01:58:52;;;;;;;1.40;1.30;;;;;;;22.55;78.51;95931.25;4309195;33;20256;-66
2023/08/21 02:01:18;;;;;;;2.20;2.03;;;;;;;22.58;77.91;95917.03;4306620;32;20217;-66
2023/08/21 02:03:46;;;;;;;4.70;3.47;;;;;;;22.50;78.44;95923.41;4307464;33;20186;-64
2023/08/21 02:06:12;;;;;;;2.17;2.07;;;;;;;22.53;78.94;95922.69;4308477;32;20226;-66
2023/08/21 02:08:39;;;;;;;2.10;2.00;;;;;;;22.49;79.38;95923.75;4300799;32;20181;-66
2023/08/21 02:11:06;;;;;;;2.47;2.30;;;;;;;22.48;79.17;95922.97;4313226;33;20237;-66
2023/08/21 02:13:33;;;;;;;2.53;2.43;;;;;;;22.44;79.72;95927.56;4290057;32;20212;-66
2023/08/21 02:16:01;;;;;;;1.30;1.30;;;;;;;22.40;79.48;95923.97;4324042;32;20193;-65
2023/08/21 02:18:26;;;;;;;1.80;1.70;;;;;;;22.47;78.72;95920.63;4311799;32;20198;-65
2023/08/21 02:20:52;;;;;;;1.70;1.60;;;;;;;22.47;79.36;95926.81;4325970;32;20304;-66
2023/08/21 02:23:20;;;;;;;2.27;2.17;;;;;;;22.44;79.34;95935.66;4304412;32;20209;-64
2023/08/21 02:25:46;;;;;;;2.17;1.67;;;;;;;22.41;79.50;95927.47;4329796;32;20224;-67
2023/08/21 02:28:12;;;;;;;3.00;1.30;;;;;;;22.47;79.51;95926.81;4294990;32;20208;-66
2023/08/21 02:30:42;;;;;;;2.10;2.00;;;;;;;22.50;78.93;95922.63;4297127;33;20267;-66
2023/08/21 02:33:16;;;;;;;2.57;2.43;;;;;;;22.41;78.47;95928.25;4320572;32;20222;-65
2023/08/21 02:35:42;;;;;;;2.17;2.07;;;;;;;22.41;78.97;95928.25;4306015;32;20270;-65
2023/08/21 02:38:10;;;;;;;1.33;1.33;;;;;;;22.36;79.03;95925.03;4263602;32;20253;-66
2023/08/21 02:40:36;;;;;;;1.37;1.37;;;;;;;22.41;79.10;95922.84;4294012;32;20190;-66
2023/08/21 02:43:03;;;;;;;1.63;1.63;;;;;;;22.33;79.51;95929.22;4301413;32;20255;-66
2023/08/21 02:45:31;;;;;;;1.57;1.57;;;;;;;22.36;79.41;95927.75;4292855;32;20266;-66
2023/08/21 02:47:56;;;;;;;2.13;2.03;;;;;;;22.37;79.38;95934.72;4306983;32;20186;-65
2023/08/21 02:50:24;;;;;;;3.17;1.53;;;;;;;22.40;79.26;95934.78;4301280;32;20259;-66
2023/08/21 02:52:50;;;;;;;1.97;1.80;;;;;;;22.23;79.94;95935.19;4280937;32;20198;-66
2023/08/21 02:55:20;;;;;;;2.70;2.33;;;;;;;22.15;80.01;95928.84;4270894;33;20198;-65
2023/08/21 02:57:46;;;;;;;2.27;2.07;;;;;;;22.32;79.58;95927.66;4275164;32;20194;-65
2023/08/21 03:00:13;;;;;;;2.17;2.07;;;;;;;22.28;79.84;95932.97;4291538;32;20190;-66
2023/08/21 03:02:43;;;;;;;1.33;1.33;;;;;;;22.40;78.96;95932.09;4309980;32;20194;-66
2023/08/21 03:05:11;;;;;;;2.00;1.90;;;;;;;22.28;78.58;95941.09;4289551;32;20241;-66
2023/08/21 03:07:41;;;;;;;2.03;1.93;;;;;;;22.27;79.97;95936.03;4283591;33;20257;-66
2023/08/21 03:10:08;;;;;;;2.00;1.90;;;;;;;22.27;79.83;95931.41;4301088;32;20297;-65
2023/08/21 03:12:37;;;;;;;2.00;1.90;;;;;;;22.32;79.93;95933.06;4316961;32;20290;-65
2023/08/21 03:15:04;;;;;;;2.10;1.93;;;;;;;22.30;79.49;95943.44;4298727;32;20190;-66
2023/08/21 03:17:31;;;;;;;1.73;1.67;;;;;;;22.23;80.27;95935.19;4311677;32;20196;-65
2023/08/21 03:19:56;;;;;;;2.30;2.17;;;;;;;22.25;80.55;95941.00;4304721;32;20211;-65
2023/08/21 03:22:24;;;;;;;1.50;1.50;;;;;;;22.28;79.88;95938.37;4326640;32;20194;-65
2023/08/21 03:24:54;;;;;;;2.97;1.70;;;;;;;22.22;80.53;95944.44;4274423;32;20241;-65
2023/08/21 03:27:21;;;;;;;1.43;1.43;;;;;;;22.16;81.48;95946.63;4304793;32;20202;-66
2023/08/21 03:29:50;;;;;;;2.13;2.03;;;;;;;22.24;80.42;95947.56;4334549;32;20231;-66
2023/08/21 03:32:17;;;;;;;2.67;2.03;;;;;;;22.16;80.68;95949.34;4333771;32;20212;-65
2023/08/21 03:34:48;;;;;;;1.30;1.30;;;;;;;22.19;81.02;95948.63;4325534;33;20193;-66
2023/08/21 03:37:17;;;;;;;1.70;1.70;;;;;;;22.11;80.93;95946.87;4337685;32;20198;-65
2023/08/21 03:39:45;;;;;;;2.17;1.97;;;;;;;22.10;81.15;95949.94;4276567;33;20202;-66
2023/08/21 03:42:10;;;;;;;1.10;1.10;;;;;;;22.26;80.33;95954.19;4305950;32;20210;-66
2023/08/21 03:44:40;;;;;;;1.97;1.87;;;;;;;22.25;80.36;95955.31;4322729;32;20208;-66
2023/08/21 03:47:07;;;;;;;3.23;2.03;;;;;;;22.22;80.46;95957.97;4267061;33;20205;-66
2023/08/21 03:49:35;;;;;;;2.67;1.80;;;;;;;22.26;79.99;95956.09;4275540;33;20198;-66
2023/08/21 03:52:02;;;;;;;1.33;1.20;;;;;;;22.26;79.94;95964.22;4319191;32;20229;-66
2023/08/21 03:54:29;;;;;;;1.40;1.40;;;;;;;22.15;80.17;95966.69;4319194;32;20222;-65
2023/08/21 03:56:56;;;;;;;2.87;2.60;;;;;;;22.08;80.24;95955.69;4321126;32;20224;-66
2023/08/21 03:59:23;;;;;;;1.77;1.63;;;;;;;21.99;81.35;95959.72;4286104;33;20229;-65
2023/08/21 04:01:50;;;;;;;1.70;1.60;;;;;;;21.98;80.90;95967.03;4291328;33;20190;-65
2023/08/21 04:04:18;;;;;;;1.47;1.47;;;;;;;21.93;81.51;95968.06;4285777;33;20202;-65
2023/08/21 04:06:46;;;;;;;2.03;1.90;;;;;;;22.05;80.68;95969.13;4332872;33;20208;-66
2023/08/21 04:09:16;;;;;;;3.00;2.23;;;;;;;22.05;80.82;95974.53;4314021;32;20208;-65
2023/08/21 04:11:43;;;;;;;1.57;1.57;;;;;;;22.10;80.55;95971.56;4307389;33;20190;-66
2023/08/21 04:14:11;;;;;;;1.13;1.13;;;;;;;21.98;80.98;95972.44;4282937;33;20204;-66
2023/08/21 04:16:38;;;;;;;1.77;1.67;;;;;;;22.07;80.87;95970.34;4298370;33;20190;-66
2023/08/21 04:19:03;;;;;;;2.37;2.27;;;;;;;22.06;81.12;95965.28;4300749;32;20227;-66
2023/08/21 04:21:29;;;;;;;1.67;1.67;;;;;;;22.05;80.88;95963.72;4298720;33;20190;-66
2023/08/21 04:23:57;;;;;;;1.63;1.63;;;;;;;21.90;81.66;95967.97;4292951;33;20202;-65
2023/08/21 04:26:22;;;;;;;2.20;2.10;;;;;;;21.99;81.59;95965.12;4279333;32;20190;-66
2023/08/21 04:28:47;;;;;;;1.77;1.70;;;;;;;22.10;81.19;95966.16;4305165;33;20201;-65
2023/08/21 04:31:13;;;;;;;2.20;2.10;;;;;;;22.15;81.49;95966.69;4321283;33;20193;-66
2023/08/21 04:33:41;;;;;;;2.63;2.53;;;;;;;22.16;81.40;95964.75;4270115;33;20272;-65
2023/08/21 04:36:13;;;;;;;1.70;1.60;;;;;;;22.07;81.94;95964.16;4327995;32;20191;-66
2023/08/21 04:38:39;;;;;;;2.07;1.97;;;;;;;22.11;82.04;95968.50;4287612;32;20402;-66
2023/08/21 04:41:09;;;;;;;2.33;2.23;;;;;;;22.12;82.03;95964.69;4316550;33;20330;-66
2023/08/21 04:43:35;;;;;;;2.57;2.47;;;;;;;22.10;82.44;95969.66;4272156;33;20283;-66
2023/08/21 04:46:03;;;;;;;2.67;1.77;;;;;;;22.10;82.49;95971.56;4264074;33;20206;-65
2023/08/21 04:48:30;;;;;;;2.40;2.20;;;;;;;22.08;82.73;95965.72;4258233;33;20211;-66
2023/08/21 04:50:56;;;;;;;2.60;2.50;;;;;;;22.04;82.61;95965.62;4260733;33;20234;-66
2023/08/21 04:53:23;;;;;;;1.73;1.70;;;;;;;22.16;82.07;95965.53;4298904;33;20229;-66
2023/08/21 04:55:48;;;;;;;2.20;2.10;;;;;;;22.00;82.79;95977.50;4307417;32;20213;-65
2023/08/21 04:58:14;;;;;;;1.40;1.13;;;;;;;21.97;82.71;95976.28;4329315;32;20201;-65
2023/08/21 05:00:40;;;;;;;2.27;2.03;;;;;;;22.04;81.92;95975.66;4304082;32;20183;-66
2023/08/21 05:03:09;;;;;;;1.67;1.57;;;;;;;21.95;82.17;95973.91;4298108;32;20216;-65
2023/08/21 05:05:36;;;;;;;2.07;1.97;;;;;;;22.08;81.89;95980.03;4292404;32;20193;-65
2023/08/21 05:08:03;;;;;;;2.03;1.93;;;;;;;22.04;81.64;95981.84;4303202;33;20299;-65
2023/08/21 05:10:29;;;;;;;2.40;1.43;;;;;;;22.00;81.64;95981.00;4314777;33;20261;-66
2023/08/21 05:12:59;;;;;;;1.70;1.60;;;;;;;21.95;81.33;95984.72;4318133;32;20193;-65
2023/08/21 05:15:25;;;;;;;1.00;1.00;;;;;;;21.93;81.71;95978.88;4309436;32;20199;-65
2023/08/21 05:17:51;;;;;;;1.53;1.53;;;;;;;21.92;80.75;95981.94;4288845;33;20190;-66
2023/08/21 05:20:17;;;;;;;1.00;1.00;;;;;;;21.88;81.41;95987.25;4274548;33;20194;-64
2023/08/21 05:22:43;;;;;;;1.33;1.33;;;;;;;22.03;80.96;95987.62;4308345;32;20217;-66
2023/08/21 05:25:11;;;;;;;1.57;1.47;;;;;;;22.10;80.52;95988.56;4306492;33;20221;-66
2023/08/21 05:27:41;;;;;;;1.33;1.33;;;;;;;21.99;81.06;95984.81;4308389;32;20204;-66
2023/08/21 05:30:08;;;;;;;1.13;1.13;;;;;;;22.01;81.35;95984.50;4309518;33;20206;-66
2023/08/21 05:32:34;;;;;;;2.43;2.33;;;;;;;22.04;80.68;95986.47;4294734;33;20266;-65
2023/08/21 05:35:01;;;;;;;2.17;2.07;;;;;;;22.10;80.20;95993.19;4316747;32;20503;-66
2023/08/21 05:37:31;;;;;;;1.77;1.67;;;;;;;22.12;80.59;95989.00;4339179;32;20193;-66
2023/08/21 05:39:57;;;;;;;1.80;1.70;;;;;;;22.07;80.50;95989.25;4296907;33;20222;-65
2023/08/21 05:42:23;;;;;;;1.63;1.53;;;;;;;22.16;80.70;95989.09;4280503;32;20190;-66
2023/08/21 05:44:50;;;;;;;1.23;1.13;;;;;;;22.15;81.06;95984.81;4281912;33;20265;-66
2023/08/21 05:47:15;;;;;;;1.47;1.47;;;;;;;22.16;79.73;95991.78;4331953;32;20231;-64
2023/08/21 05:49:42;;;;;;;1.63;1.63;;;;;;;22.17;79.94;96001.47;4307494;33;20202;-66
2023/08/21 05:52:10;;;;;;;1.43;1.37;;;;;;;22.22;80.05;95996.59;4314240;32;20208;-66
2023/08/21 05:54:35;;;;;;;2.10;2.00;;;;;;;22.25;80.17;96005.91;4304270;32;20308;-66
2023/08/21 05:57:03;;;;;;;1.57;1.47;;;;;;;22.21;80.10;96002.34;4314669;32;20243;-66
2023/08/21 05:59:33;;;;;;;1.97;1.87;;;;;;;22.23;79.86;96002.78;4330933;32;20197;-65
2023/08/21 06:02:00;;;;;;;1.33;1.27;;;;;;;22.25;79.53;96005.91;4310960;32;20185;-66
2023/08/21 06:04:27;;;;;;;1.13;1.10;;;;;;;22.21;79.10;96005.06;4307603;32;20267;-66
2023/08/21 06:06:54;;;;;;;1.63;1.53;;;;;;;22.21;79.57;96007.75;4325387;32;20208;-66
2023/08/21 06:09:21;;;;;;;1.90;1.80;;;;;;;22.25;80.10;96005.91;4315037;32;20201;-65
2023/08/21 06:11:51;;;;;;;1.93;1.83;;;;;;;22.33;79.96;96007.63;4317462;32;20212;-65
2023/08/21 06:14:17;;;;;;;2.27;2.17;;;;;;;22.39;79.77;95997.34;4335617;32;20205;-65
2023/08/21 06:16:45;;;;;;;0.77;0.77;;;;;;;22.38;79.59;96004.66;4323733;32;20260;-66
2023/08/21 06:19:11;;;;;;;1.33;1.23;;;;;;;22.33;79.42;96007.63;4317015;33;20194;-66
2023/08/21 06:21:37;;;;;;;1.43;1.40;;;;;;;22.44;79.97;96007.91;4315371;32;20285;-65
2023/08/21 06:24:04;;;;;;;2.17;2.07;;;;;;;22.44;79.99;96008.69;4331898;32;20181;-66
2023/08/21 06:26:32;;;;;;;2.43;2.30;;;;;;;22.48;80.33;96006.03;4263724;32;20197;-66
2023/08/21 06:28:59;;;;;;;6.07;2.73;;;;;;;22.40;79.02;96002.41;4272337;33;20214;-66
2023/08/21 06:31:25;;;;;;;2.57;1.80;;;;;;;22.50;79.93;96007.25;4325858;32;20216;-66
2023/08/21 06:33:52;;;;;;;2.20;2.10;;;;;;;22.50;79.15;96006.47;4332665;32;20225;-66
2023/08/21 06:36:17;;;;;;;1.47;1.47;;;;;;;22.57;79.20;96001.22;4320065;32;20216;-65
2023/08/21 06:38:44;;;;;;;1.47;1.37;;;;;;;22.63;78.19;96011.41;4314964;33;20190;-66
2023/08/21 06:41:10;;;;;;;3.27;2.97;;;;;;;22.68;77.97;96014.97;4338766;32;20199;-66
2023/08/21 06:43:37;;;;;;;1.50;1.40;;;;;;;22.74;78.92;96017.03;4323096;32;20268;-67
2023/08/21 06:46:05;;;;;;;0.87;0.87;;;;;;;22.78;80.05;96011.75;4300321;32;20197;-66
2023/08/21 06:48:33;;;;;;;1.63;1.53;;;;;;;22.83;79.45;96016.88;4296170;32;20202;-65
2023/08/21 06:50:59;;;;;;;2.63;2.43;;;;;;;22.84;78.50;96021.94;4301866;33;20194;-66
2023/08/21 06:53:26;;;;;;;2.17;2.07;;;;;;;22.90;79.21;96017.81;4321602;32;20325;-66
2023/08/21 06:55:51;;;;;;;2.77;2.33;;;;;;;23.00;78.01;96016.47;4332324;32;20190;-66
2023/08/21 06:58:17;;;;;;;2.43;2.00;;;;;;;23.07;78.66;96015.84;4308486;32;20209;-67
2023/08/21 07:00:46;;;;;;;2.30;2.03;;;;;;;23.10;77.75;96012.38;4317748;32;20247;-66
2023/08/21 07:03:13;;;;;;;1.87;1.73;;;;;;;23.18;78.42;96009.47;4319632;32;20245;-66
2023/08/21 07:05:39;;;;;;;1.67;1.67;;;;;;;23.21;76.67;96016.91;4324085;32;20204;-66
2023/08/21 07:08:06;;;;;;;1.40;1.30;;;;;;;23.33;76.78;96020.59;4338222;32;20292;-66
2023/08/21 07:10:39;;;;;;;2.97;2.30;;;;;;;23.36;77.07;96019.88;4302471;32;20191;-66
2023/08/21 07:13:04;;;;;;;2.20;2.10;;;;;;;23.42;76.79;96021.16;4306143;33;20217;-66
2023/08/21 07:15:29;;;;;;;1.83;1.73;;;;;;;23.46;76.06;96016.59;4304469;32;20247;-66
2023/08/21 07:17:56;;;;;;;1.73;1.73;;;;;;;23.56;75.36;96018.72;4301577;32;20197;-66
2023/08/21 07:20:24;;;;;;;1.70;1.60;;;;;;;23.66;75.03;96018.16;4290819;32;20274;-66
2023/08/21 07:22:49;;;;;;;1.27;1.27;;;;;;;23.66;75.66;96029.00;4268173;33;20194;-66
2023/08/21 07:25:16;;;;;;;4.70;2.87;;;;;;;23.63;75.74;96030.50;4309842;32;20196;-66
2023/08/21 07:27:42;;;;;;;2.93;2.73;;;;;;;23.72;75.20;96027.53;4300363;32;20190;-66
2023/08/21 07:30:20;;;;;;;1.90;1.80;;;;;;;23.79;75.25;96024.94;4312939;32;20236;-66
2023/08/21 07:32:49;;;;;;;1.30;1.30;;;;;;;23.87;74.47;96029.37;4316331;32;20256;-66
2023/08/21 07:35:18;;;;;;;3.73;3.50;;;;;;;23.94;74.74;96024.03;4294283;32;20200;-66
2023/08/21 07:37:45;;;;;;;3.00;2.80;;;;;;;23.93;74.90;96017.06;4329688;32;20267;-66
2023/08/21 07:40:13;;;;;;;2.77;2.47;;;;;;;24.01;74.34;96023.41;4335871;32;20186;-66
2023/08/21 07:42:40;;;;;;;11.70;6.73;;;;;;;24.04;74.68;96028.09;4323202;32;20196;-67
2023/08/21 07:45:07;;;;;;;4.93;4.30;;;;;;;24.12;73.75;96018.12;4316441;32;20211;-66
2023/08/21 07:47:34;;;;;;;3.43;3.17;;;;;;;24.20;73.44;96022.53;4285617;32;20260;-66
2023/08/21 07:50:04;;;;;;;4.07;3.87;;;;;;;24.27;73.02;96028.91;4279861;32;20202;-66
2023/08/21 07:52:31;;;;;;;5.00;4.60;;;;;;;24.32;73.02;96025.06;4290992;32;20182;-66
2023/08/21 07:55:00;;;;;;;5.00;4.50;;;;;;;24.32;72.91;96022.34;4333751;32;20240;-66
2023/08/21 07:57:33;;;;;;;5.33;4.73;;;;;;;24.36;72.57;96025.13;4328253;32;20224;-66
2023/08/21 08:00:00;;;;;;;3.00;2.90;;;;;;;24.46;72.17;96021.81;4268159;33;20250;-66
2023/08/21 08:02:26;;;;;;;4.00;2.93;;;;;;;24.47;72.29;96029.56;4314296;32;20201;-66
2023/08/21 08:04:53;;;;;;;3.23;2.10;;;;;;;24.50;72.58;96028.84;4305720;32;20212;-66
2023/08/21 08:07:20;;;;;;;1.00;1.00;;;;;;;24.58;71.47;96025.06;4322944;32;20209;-66
2023/08/21 08:09:51;;;;;;;2.50;2.07;;;;;;;24.65;71.02;96027.91;4341179;32;20185;-66
2023/08/21 08:12:16;;;;;;;1.80;1.70;;;;;;;24.79;69.78;96027.31;4319351;32;20209;-65
2023/08/21 08:14:42;;;;;;;5.37;1.73;;;;;;;24.76;70.70;96035.41;4331040;32;20224;-66
2023/08/21 08:17:10;;;;;;;1.40;1.40;;;;;;;24.82;70.73;96031.22;4289793;32;20183;-66
2023/08/21 08:19:37;;;;;;;1.80;1.70;;;;;;;24.89;69.77;96026.69;4294173;32;20190;-66
2023/08/21 08:22:04;;;;;;;2.53;2.43;;;;;;;24.93;69.81;96024.81;4321895;32;20240;-66
2023/08/21 08:24:29;;;;;;;1.23;1.23;;;;;;;24.99;70.31;96022.56;4332670;32;20223;-66
2023/08/21 08:26:56;;;;;;;2.40;1.83;;;;;;;25.08;69.19;96028.50;4290982;32;20197;-66
2023/08/21 08:29:22;;;;;;;1.93;1.87;;;;;;;25.16;68.76;96027.41;4300409;32;20241;-66
2023/08/21 08:31:50;;;;;;;2.67;1.80;;;;;;;25.21;68.29;96031.75;4336571;32;20269;-65
2023/08/21 08:34:20;;;;;;;1.73;1.63;;;;;;;25.34;67.64;96031.16;4318614;32;20211;-66
2023/08/21 08:36:45;;;;;;;1.07;1.07;;;;;;;25.41;67.43;96026.94;4315911;32;20206;-66
2023/08/21 08:39:12;;;;;;;3.23;2.53;;;;;;;25.47;67.31;96030.87;4305875;32;20199;-66
2023/08/21 08:42:00;;;;;;;2.20;1.63;;;;;;;25.51;66.18;96024.34;4291331;32;20287;-66
2023/08/21 08:44:29;;;;;;;1.60;1.33;;;;;;;25.62;65.19;96025.25;4320724;32;20188;-66
2023/08/21 08:46:56;;;;;;;1.83;1.73;;;;;;;25.67;64.50;96024.13;4305837;32;20196;-66
2023/08/21 08:49:22;;;;;;;1.53;1.53;;;;;;;25.76;64.15;96026.56;4306875;32;20194;-65
2023/08/21 08:51:53;;;;;;;2.47;2.37;;;;;;;25.84;63.91;96020.03;4310549;32;20200;-66
2023/08/21 08:54:20;;;;;;;1.60;1.50;;;;;;;25.92;62.71;96018.94;4304489;32;20178;-65
2023/08/21 08:56:49;;;;;;;1.53;1.43;;;;;;;26.00;59.91;96021.34;4332911;32;20190;-64
2023/08/21 08:59:27;;;;;;;10.73;5.00;;;;;;;26.32;58.09;96023.56;4326585;32;20218;-64
2023/08/21 09:01:55;;;;;;;2.30;2.10;;;;;;;26.00;64.13;96023.28;4325595;32;20252;-64
2023/08/21 09:04:22;;;;;;;2.47;2.00;;;;;;;26.08;58.66;96021.41;4295782;32;20194;-64
2023/08/21 09:06:47;;;;;;;2.60;1.80;;;;;;;26.16;60.00;96023.81;4284065;32;20194;-64
2023/08/21 09:09:14;;;;;;;4.23;1.80;;;;;;;26.06;59.40;96018.28;4263753;33;20198;-65
2023/08/21 09:11:44;;;;;;;1.00;1.00;;;;;;;26.16;59.84;96023.81;4328824;32;20340;-64
2023/08/21 09:14:12;;;;;;;1.40;1.40;;;;;;;26.20;58.30;96018.38;4248318;32;20252;-64
2023/08/21 09:17:01;;;;;;;1.43;1.43;;;;;;;26.31;58.16;96022.78;4336685;32;20292;-64
2023/08/21 09:19:29;;;;;;;2.00;1.23;;;;;;;26.35;57.50;96020.09;4314987;32;20201;-64
2023/08/21 09:21:55;;;;;;;1.67;1.50;;;;;;;26.28;60.95;96020.78;4304617;32;20258;-63
2023/08/21 09:24:22;;;;;;;1.30;1.30;;;;;;;26.16;60.38;96020.31;4339677;32;20208;-64
2023/08/21 09:26:47;;;;;;;1.30;1.30;;;;;;;25.96;61.37;96014.31;4302032;32;20239;-63
2023/08/21 09:29:17;;;;;;;1.73;1.63;;;;;;;25.99;59.36;96010.81;4307749;32;20197;-64
2023/08/21 09:31:45;;;;;;;5.13;1.67;;;;;;;26.30;57.91;96017.72;4297985;33;20276;-64
2023/08/21 09:34:12;;;;;;;1.80;1.70;;;;;;;26.38;58.30;96019.34;4310033;33;20210;-64
2023/08/21 09:36:41;;;;;;;1.40;1.40;;;;;;;26.26;57.02;96014.16;4318489;32;20193;-63
2023/08/21 09:39:18;;;;;;;2.67;1.80;;;;;;;26.77;53.07;96013.38;4337648;32;20276;-64
2023/08/21 09:41:59;;;;;;;3.83;3.33;;;;;;;26.90;54.79;96014.59;4333090;32;20193;-64
2023/08/21 09:44:25;;;;;;;1.20;1.20;;;;;;;27.28;49.78;96016.75;4328395;32;20255;-64
2023/08/21 09:46:52;;;;;;;0.83;0.83;;;;;;;27.66;47.41;96007.13;4314024;32;20193;-64
2023/08/21 09:49:21;;;;;;;1.93;1.90;;;;;;;27.45;48.81;96009.00;4337735;32;20202;-64
2023/08/21 09:51:47;;;;;;;3.27;3.07;;;;;;;27.00;52.79;96011.97;4323387;32;20239;-64
2023/08/21 09:54:14;;;;;;;2.43;2.33;;;;;;;26.94;52.99;96008.03;4243245;33;20190;-64
2023/08/21 09:56:43;;;;;;;0.70;0.70;;;;;;;27.26;47.66;96008.16;4257743;33;20271;-64
2023/08/21 09:59:10;;;;;;;2.00;1.23;;;;;;;27.54;46.48;96010.19;4262731;33;20263;-64
2023/08/21 10:02:01;;;;;;;1.17;1.17;;;;;;;27.81;45.85;96001.72;4252159;32;20212;-64
2023/08/21 10:04:34;;;;;;;1.50;1.47;;;;;;;27.80;46.64;96006.38;4287218;32;20209;-64
2023/08/21 10:07:03;;;;;;;1.17;1.07;;;;;;;27.93;47.61;96007.56;4280413;32;20297;-64
2023/08/21 10:09:29;;;;;;;1.00;1.00;;;;;;;28.14;46.79;95995.88;4296433;32;20198;-64
2023/08/21 10:12:10;;;;;;;0.90;0.90;;;;;;;28.10;47.14;95989.63;4288144;32;20194;-64
2023/08/21 10:14:37;;;;;;;1.63;1.23;;;;;;;28.34;45.47;95993.56;4235672;33;20216;-64
2023/08/21 10:17:08;;;;;;;0.87;0.87;;;;;;;28.60;44.37;95990.41;4247313;33;20186;-63
2023/08/21 10:19:38;;;;;;;1.43;1.33;;;;;;;28.11;47.10;95988.47;4322433;32;20208;-63
2023/08/21 10:22:05;;;;;;;1.00;0.87;;;;;;;28.09;44.71;95990.03;4286820;32;20245;-63
2023/08/21 10:24:37;;;;;;;1.60;1.60;;;;;;;28.10;42.80;95992.37;4292111;33;20218;-63
2023/08/21 10:27:06;;;;;;;0.97;0.97;;;;;;;28.40;42.32;95994.72;4299681;32;20237;-63
2023/08/21 10:29:36;;;;;;;0.57;0.57;;;;;;;28.29;43.03;95991.22;4287957;33;20186;-63
2023/08/21 10:32:10;;;;;;;0.87;0.87;;;;;;;28.54;42.89;95991.19;4267774;33;20194;-63
2023/08/21 10:34:37;;;;;;;1.77;1.67;;;;;;;28.58;43.08;95991.97;4260382;32;20190;-63
2023/08/21 10:37:13;;;;;;;0.97;0.97;;;;;;;28.72;44.23;95989.97;4294323;32;20328;-63
2023/08/21 10:39:54;;;;;;;1.30;1.30;;;;;;;28.99;43.64;95995.00;4246170;32;20258;-63
2023/08/21 10:42:19;;;;;;;1.60;1.50;;;;;;;28.85;43.96;95989.59;4268207;32;20201;-63
2023/08/21 10:44:55;;;;;;;0.83;0.83;;;;;;;28.78;44.47;95984.87;4314847;32;20193;-63
2023/08/21 10:47:39;;;;;;;3.43;2.23;;;;;;;28.96;44.19;95993.06;4274097;32;20193;-63
2023/08/21 10:50:06;;;;;;;1.67;1.57;;;;;;;29.00;43.19;95988.34;4303406;32;20216;-63
2023/08/21 10:52:47;;;;;;;1.80;1.10;;;;;;;29.03;43.34;95982.88;4316152;32;20201;-63
2023/08/21 10:55:16;;;;;;;0.90;0.90;;;;;;;28.94;43.37;95981.72;4303450;32;20219;-64
2023/08/21 10:57:41;;;;;;;1.20;1.10;;;;;;;28.85;44.42;95984.91;4321157;32;20359;-64
2023/08/21 11:00:15;;;;;;;0.80;0.80;;;;;;;28.87;44.59;95992.72;4307111;32;20276;-63
2023/08/21 11:02:49;;;;;;;1.10;1.10;;;;;;;28.58;46.37;95984.53;4327655;32;20268;-63
2023/08/21 11:05:15;;;;;;;0.70;0.70;;;;;;;28.56;46.05;95986.09;4342356;32;20216;-63
2023/08/21 11:07:48;;;;;;;1.17;1.17;;;;;;;28.72;44.76;95986.47;4338153;32;20320;-63
2023/08/21 11:10:35;;;;;;;1.27;1.27;;;;;;;28.73;43.89;95988.78;4263848;32;20185;-62
2023/08/21 11:13:03;;;;;;;0.57;0.57;;;;;;;29.20;42.44;95986.72;4319820;32;20229;-63
2023/08/21 11:15:30;;;;;;;1.07;1.07;;;;;;;29.39;41.93;95991.72;4326381;32;20193;-62
2023/08/21 11:18:03;;;;;;;0.90;0.90;;;;;;;29.56;41.08;95984.59;4347681;32;20205;-63
2023/08/21 11:20:33;;;;;;;0.90;0.90;;;;;;;29.23;44.24;95987.88;4341912;32;20182;-63
2023/08/21 11:23:02;;;;;;;1.17;1.07;;;;;;;29.17;44.53;95990.22;4330049;32;20202;-63
2023/08/21 11:25:30;;;;;;;0.80;0.80;;;;;;;28.93;43.63;95993.84;4324059;32;20201;-63
2023/08/21 11:28:01;;;;;;;1.73;1.63;;;;;;;28.77;44.61;95985.28;4348177;32;20247;-63
2023/08/21 11:30:31;;;;;;;0.80;0.80;;;;;;;28.65;46.40;95986.50;4328190;32;20243;-63
2023/08/21 11:33:13;;;;;;;1.17;1.17;;;;;;;28.57;46.32;95984.94;4326433;32;20197;-63
2023/08/21 11:35:40;;;;;;;1.20;1.20;;;;;;;28.63;46.81;95986.88;4322855;32;20238;-62
2023/08/21 11:38:38;;;;;;;1.30;1.30;;;;;;;28.70;46.65;95989.56;4328806;32;20186;-63
2023/08/21 11:41:08;;;;;;;2.47;0.90;;;;;;;28.44;47.00;95984.59;4322751;32;20253;-63